sensor_id;sensor_type;location;lat;lon;timestamp;pressure;altitude;pressure_sealevel;temperature;humidity
3960;BME280;1994;48.640;8.894;2023-03-01T00:01:28;96784.84;;;-0.33;73.86
3960;BME280;1994;48.640;8.894;2023-03-01T00:03:56;96798.19;;;-0.39;74.24
3960;BME280;1994;48.640;8.894;2023-03-01T00:06:22;96778.41;;;-0.45;74.49
3960;BME280;1994;48.640;8.894;2023-03-01T00:08:49;96778.41;;;-0.45;74.63
3960;BME280;1994;48.640;8.894;2023-03-01T00:11:19;96781.63;;;-0.43;74.50
3960;BME280;1994;48.640;8.894;2023-03-01T00:13:47;96779.03;;;-0.51;74.74
3960;BME280;1994;48.640;8.894;2023-03-01T00:16:28;96789.50;;;-0.54;74.56
3960;BME280;1994;48.640;8.894;2023-03-01T00:18:55;96778.66;;;-0.56;74.92
3960;BME280;1994;48.640;8.894;2023-03-01T00:21:22;96783.47;;;-0.53;75.25
3960;BME280;1994;48.640;8.894;2023-03-01T00:23:51;96785.66;;;-0.58;75.05
3960;BME280;1994;48.640;8.894;2023-03-01T00:26:19;96792.94;;;-0.63;75.21
3960;BME280;1994;48.640;8.894;2023-03-01T00:28:46;96794.66;;;-0.63;75.06
3960;BME280;1994;48.640;8.894;2023-03-01T00:31:17;96780.22;;;-0.63;75.45
3960;BME280;1994;48.640;8.894;2023-03-01T00:33:43;96782.56;;;-0.69;75.36
3960;BME280;1994;48.640;8.894;2023-03-01T00:36:11;96775.00;;;-0.79;75.61
3960;BME280;1994;48.640;8.894;2023-03-01T00:38:40;96776.59;;;-0.78;75.77
3960;BME280;1994;48.640;8.894;2023-03-01T00:41:13;96772.41;;;-0.87;76.35
3960;BME280;1994;48.640;8.894;2023-03-01T00:43:39;96767.03;;;-0.84;76.01
3960;BME280;1994;48.640;8.894;2023-03-01T00:46:14;96767.91;;;-0.93;76.25
3960;BME280;1994;48.640;8.894;2023-03-01T00:48:40;96766.63;;;-0.97;76.55
3960;BME280;1994;48.640;8.894;2023-03-01T00:51:18;96767.91;;;-0.93;76.65
3960;BME280;1994;48.640;8.894;2023-03-01T00:53:45;96770.16;;;-0.90;76.75
3960;BME280;1994;48.640;8.894;2023-03-01T00:56:17;96772.41;;;-0.87;76.35
3960;BME280;1994;48.640;8.894;2023-03-01T00:58:43;96772.47;;;-0.79;75.55
3960;BME280;1994;48.640;8.894;2023-03-01T01:01:16;96774.78;;;-0.85;76.04
3960;BME280;1994;48.640;8.894;2023-03-01T01:03:54;96760.22;;;-1.01;77.08
3960;BME280;1994;48.640;8.894;2023-03-01T01:06:25;96766.53;;;-1.05;76.80
3960;BME280;1994;48.640;8.894;2023-03-01T01:08:53;96757.91;;;-1.12;77.02
3960;BME280;1994;48.640;8.894;2023-03-01T01:11:21;96751.50;;;-1.16;77.12
3960;BME280;1994;48.640;8.894;2023-03-01T01:13:48;96753.91;;;-1.14;77.18
3960;BME280;1994;48.640;8.894;2023-03-01T01:16:16;96752.19;;;-1.14;77.25
3960;BME280;1994;48.640;8.894;2023-03-01T01:18:43;96759.13;;;-1.16;77.22
3960;BME280;1994;48.640;8.894;2023-03-01T01:21:14;96749.91;;;-1.17;77.12
3960;BME280;1994;48.640;8.894;2023-03-01T01:23:42;96746.16;;;-1.13;77.02
3960;BME280;1994;48.640;8.894;2023-03-01T01:26:25;96747.16;;;-1.06;76.51
3960;BME280;1994;48.640;8.894;2023-03-01T01:28:51;96740.84;;;-1.02;76.64
3960;BME280;1994;48.640;8.894;2023-03-01T01:31:18;96735.09;;;-1.04;76.92
3960;BME280;1994;48.640;8.894;2023-03-01T01:33:44;96743.66;;;-1.05;77.02
3960;BME280;1994;48.640;8.894;2023-03-01T01:36:10;96734.88;;;-1.10;76.92
3960;BME280;1994;48.640;8.894;2023-03-01T01:38:38;96728.28;;;-1.21;77.50
3960;BME280;1994;48.640;8.894;2023-03-01T01:41:05;96728.28;;;-1.21;77.67
3960;BME280;1994;48.640;8.894;2023-03-01T01:43:44;96727.00;;;-1.25;77.52
3960;BME280;1994;48.640;8.894;2023-03-01T01:46:29;96723.78;;;-1.27;77.99
3960;BME280;1994;48.640;8.894;2023-03-01T01:49:03;96727.00;;;-1.25;77.89
3960;BME280;1994;48.640;8.894;2023-03-01T01:51:37;96729.09;;;-1.20;77.49
3960;BME280;1994;48.640;8.894;2023-03-01T01:54:14;96729.59;;;-1.17;77.31
3960;BME280;1994;48.640;8.894;2023-03-01T01:56:48;96733.56;;;-1.14;77.50
3960;BME280;1994;48.640;8.894;2023-03-01T01:59:14;96723.41;;;-1.14;77.55
3960;BME280;1994;48.640;8.894;2023-03-01T02:01:41;96723.91;;;-1.11;77.43
3960;BME280;1994;48.640;8.894;2023-03-01T02:04:06;96719.41;;;-1.17;77.33
3960;BME280;1994;48.640;8.894;2023-03-01T02:07:19;96721.31;;;-1.19;77.33
3960;BME280;1994;48.640;8.894;2023-03-01T02:09:51;96710.56;;;-1.13;77.19
3960;BME280;1994;48.640;8.894;2023-03-01T02:12:22;96715.78;;;-1.14;77.47
3960;BME280;1994;48.640;8.894;2023-03-01T02:14:49;96717.25;;;-1.12;77.51
3960;BME280;1994;48.640;8.894;2023-03-01T02:17:16;96712.44;;;-1.15;77.86
3960;BME280;1994;48.640;8.894;2023-03-01T02:20:04;96715.34;;;-1.10;77.36
3960;BME280;1994;48.640;8.894;2023-03-01T02:22:38;96709.47;;;-1.10;77.55
3960;BME280;1994;48.640;8.894;2023-03-01T02:30:26;96706.47;;;-1.06;78.23
3960;BME280;1994;48.640;8.894;2023-03-01T02:32:55;96699.22;;;-1.01;77.99
3960;BME280;1994;48.640;8.894;2023-03-01T02:35:35;96692.88;;;-0.97;77.95
3960;BME280;1994;48.640;8.894;2023-03-01T02:38:06;96688.78;;;-0.90;77.89
3960;BME280;1994;48.640;8.894;2023-03-01T02:40:34;96679.59;;;-0.91;78.30
3960;BME280;1994;48.640;8.894;2023-03-01T02:43:04;96672.31;;;-0.86;78.12
3960;BME280;1994;48.640;8.894;2023-03-01T02:45:33;96674.75;;;-0.76;77.79
3960;BME280;1994;48.640;8.894;2023-03-01T02:47:59;96674.53;;;-0.83;78.40
3960;BME280;1994;48.640;8.894;2023-03-01T02:55:28;96669.88;;;-0.62;78.23
3960;BME280;1994;48.640;8.894;2023-03-01T02:57:55;96668.59;;;-0.66;77.73
3960;BME280;1994;48.640;8.894;2023-03-01T03:00:33;96668.59;;;-0.66;77.81
3960;BME280;1994;48.640;8.894;2023-03-01T03:03:01;96663.00;;;-0.69;77.80
3960;BME280;1994;48.640;8.894;2023-03-01T03:05:31;96667.00;;;-0.67;78.15
3960;BME280;1994;48.640;8.894;2023-03-01T03:07:59;96663.22;;;-0.63;77.73
3960;BME280;1994;48.640;8.894;2023-03-01T03:10:29;96649.84;;;-0.65;77.76
3960;BME280;1994;48.640;8.894;2023-03-01T03:13:02;96656.44;;;-0.80;78.05
3960;BME280;1994;48.640;8.894;2023-03-01T03:15:29;96652.06;;;-0.70;78.28
3960;BME280;1994;48.640;8.894;2023-03-01T03:17:57;96645.41;;;-0.63;78.35
3960;BME280;1994;48.640;8.894;2023-03-01T03:20:27;96635.53;;;-0.66;78.81
3960;BME280;1994;48.640;8.894;2023-03-01T03:22:56;96639.34;;;-0.62;77.96
3960;BME280;1994;48.640;8.894;2023-03-01T03:25:25;96640.66;;;-0.58;78.58
3960;BME280;1994;48.640;8.894;2023-03-01T03:27:52;96639.09;;;-0.51;78.34
3960;BME280;1994;48.640;8.894;2023-03-01T03:30:30;96642.31;;;-0.49;78.50
3960;BME280;1994;48.640;8.894;2023-03-01T03:32:58;96636.59;;;-0.43;78.24
3960;BME280;1994;48.640;8.894;2023-03-01T03:35:32;96644.38;;;-0.37;78.33
3960;BME280;1994;48.640;8.894;2023-03-01T03:38:03;96641.34;;;-0.48;78.13
3960;BME280;1994;48.640;8.894;2023-03-01T03:40:37;96642.94;;;-0.47;77.61
3960;BME280;1994;48.640;8.894;2023-03-01T03:43:09;96647.75;;;-0.36;78.21
3960;BME280;1994;48.640;8.894;2023-03-01T03:45:39;96643.28;;;-0.34;77.82
3960;BME280;1994;48.640;8.894;2023-03-01T03:48:08;96643.28;;;-0.42;77.76
3960;BME280;1994;48.640;8.894;2023-03-01T03:50:39;96636.59;;;-0.43;77.97
3960;BME280;1994;48.640;8.894;2023-03-01T03:53:11;96645.19;;;-0.36;78.21
3960;BME280;1994;48.640;8.894;2023-03-01T03:55:37;96635.63;;;-0.42;78.07
3960;BME280;1994;48.640;8.894;2023-03-01T03:58:09;96630.84;;;-0.45;78.80
3960;BME280;1994;48.640;8.894;2023-03-01T04:00:42;96631.84;;;-0.38;78.65
3960;BME280;1994;48.640;8.894;2023-03-01T04:03:09;96628.63;;;-0.40;78.55
3960;BME280;1994;48.640;8.894;2023-03-01T04:05:39;96627.06;;;-0.41;78.65
3960;BME280;1994;48.640;8.894;2023-03-01T04:08:09;96632.78;;;-0.39;78.50
3960;BME280;1994;48.640;8.894;2023-03-01T04:10:44;96617.16;;;-0.44;78.70
3960;BME280;1994;48.640;8.894;2023-03-01T04:13:17;96627.34;;;-0.44;78.50
3960;BME280;1994;48.640;8.894;2023-03-01T04:15:52;96614.94;;;-0.47;78.96
3960;BME280;1994;48.640;8.894;2023-03-01T04:18:22;96615.97;;;-0.32;78.56
3960;BME280;1994;48.640;8.894;2023-03-01T04:20:49;96622.94;;;-0.34;78.34
3960;BME280;1994;48.640;8.894;2023-03-01T04:23:18;96612.47;;;-0.31;78.19
3960;BME280;1994;48.640;8.894;2023-03-01T04:25:57;96609.25;;;-0.33;78.77
3960;BME280;1994;48.640;8.894;2023-03-01T04:28:29;96602.28;;;-0.31;78.63
3960;BME280;1994;48.640;8.894;2023-03-01T04:30:57;96605.44;;;-0.37;78.85
3960;BME280;1994;48.640;8.894;2023-03-01T04:33:27;96608.63;;;-0.35;78.68
3960;BME280;1994;48.640;8.894;2023-03-01T04:35:53;96605.13;;;-0.34;78.99
3960;BME280;1994;48.640;8.894;2023-03-01T04:38:19;96605.78;;;-0.24;79.17
3960;BME280;1994;48.640;8.894;2023-03-01T04:40:46;96603.56;;;-0.27;78.89
3960;BME280;1994;48.640;8.894;2023-03-01T04:43:12;96604.81;;;-0.23;78.80
3960;BME280;1994;48.640;8.894;2023-03-01T04:45:43;96611.41;;;-0.13;78.45
3960;BME280;1994;48.640;8.894;2023-03-01T04:48:09;96605.97;;;-0.17;78.47
3960;BME280;1994;48.640;8.894;2023-03-01T04:50:38;96605.81;;;-0.16;78.44
3960;BME280;1994;48.640;8.894;2023-03-01T04:53:04;96602.13;;;-0.22;78.77
3960;BME280;1994;48.640;8.894;2023-03-01T04:55:29;96609.28;;;-0.17;79.05
3960;BME280;1994;48.640;8.894;2023-03-01T04:57:55;96608.03;;;-0.21;78.64
3960;BME280;1994;48.640;8.894;2023-03-01T05:00:22;96608.66;;;-0.27;78.97
3960;BME280;1994;48.640;8.894;2023-03-01T05:03:00;96601.81;;;-0.27;79.29
3960;BME280;1994;48.640;8.894;2023-03-01T05:05:47;96604.06;;;-0.23;78.93
3960;BME280;1994;48.640;8.894;2023-03-01T05:08:14;96603.38;;;-0.33;79.42
3960;BME280;1994;48.640;8.894;2023-03-01T05:10:53;96606.56;;;-0.32;79.33
3960;BME280;1994;48.640;8.894;2023-03-01T05:13:21;96605.78;;;-0.24;79.24
3960;BME280;1994;48.640;8.894;2023-03-01T05:15:55;96603.91;;;-0.14;78.97
3960;BME280;1994;48.640;8.894;2023-03-01T05:18:25;96598.34;;;-0.17;78.83
3960;BME280;1994;48.640;8.894;2023-03-01T05:21:08;96598.00;;;-0.15;79.27
3960;BME280;1994;48.640;8.894;2023-03-01T05:23:35;96592.91;;;-0.15;79.30
3960;BME280;1994;48.640;8.894;2023-03-01T05:26:02;96593.09;;;-0.16;78.95
3960;BME280;1994;48.640;8.894;2023-03-01T05:28:31;96595.63;;;-0.16;78.94
3960;BME280;1994;48.640;8.894;2023-03-01T05:31:00;96598.19;;;-0.08;78.85
3960;BME280;1994;48.640;8.894;2023-03-01T05:33:27;96605.53;;;0.03;78.92
3960;BME280;1994;48.640;8.894;2023-03-01T05:35:53;96601.06;;;0.05;77.88
3960;BME280;1994;48.640;8.894;2023-03-01T05:38:26;96604.72;;;0.02;78.00
3960;BME280;1994;48.640;8.894;2023-03-01T05:40:51;96600.59;;;0.01;77.93
3960;BME280;1994;48.640;8.894;2023-03-01T05:43:18;96602.03;;;0.04;77.75
3960;BME280;1994;48.640;8.894;2023-03-01T05:45:44;96601.41;;;0.10;77.90
3960;BME280;1994;48.640;8.894;2023-03-01T05:48:13;96595.38;;;0.11;77.81
3960;BME280;1994;48.640;8.894;2023-03-01T05:50:44;96600.13;;;0.06;77.72
3960;BME280;1994;48.640;8.894;2023-03-01T05:53:15;96599.81;;;0.09;77.80
3960;BME280;1994;48.640;8.894;2023-03-01T05:55:42;96596.94;;;0.04;78.13
3960;BME280;1994;48.640;8.894;2023-03-01T05:58:12;96598.03;;;0.01;78.11
3960;BME280;1994;48.640;8.894;2023-03-01T06:00:43;96589.28;;;0.04;78.25
3960;BME280;1994;48.640;8.894;2023-03-01T06:03:12;96592.31;;;0.07;78.13
3960;BME280;1994;48.640;8.894;2023-03-01T06:05:40;96592.50;;;0.06;78.23
3960;BME280;1994;48.640;8.894;2023-03-01T06:08:06;96600.75;;;0.16;78.11
3960;BME280;1994;48.640;8.894;2023-03-01T06:10:35;96595.66;;;0.16;78.06
3960;BME280;1994;48.640;8.894;2023-03-01T06:13:01;96597.28;;;0.17;78.26
3960;BME280;1994;48.640;8.894;2023-03-01T06:15:27;96592.81;;;0.19;78.36
3960;BME280;1994;48.640;8.894;2023-03-01T06:17:55;96588.69;;;0.18;78.09
3960;BME280;1994;48.640;8.894;2023-03-01T06:20:27;96586.00;;;0.19;77.90
3960;BME280;1994;48.640;8.894;2023-03-01T06:22:53;96589.31;;;0.20;78.57
3960;BME280;1994;48.640;8.894;2023-03-01T06:25:24;96585.81;;;0.29;77.93
3960;BME280;1994;48.640;8.894;2023-03-01T06:27:50;96586.13;;;0.18;78.28
3960;BME280;1994;48.640;8.894;2023-03-01T06:30:22;96581.66;;;0.20;78.35
3960;BME280;1994;48.640;8.894;2023-03-01T06:32:49;96579.44;;;0.25;78.17
3960;BME280;1994;48.640;8.894;2023-03-01T06:35:19;96585.81;;;0.29;78.46
3960;BME280;1994;48.640;8.894;2023-03-01T06:37:48;96589.00;;;0.31;78.05
3960;BME280;1994;48.640;8.894;2023-03-01T06:40:14;96587.09;;;0.33;78.05
3960;BME280;1994;48.640;8.894;2023-03-01T06:42:42;96580.41;;;0.32;78.34
3960;BME280;1994;48.640;8.894;2023-03-01T06:45:10;96592.84;;;0.35;78.07
3960;BME280;1994;48.640;8.894;2023-03-01T06:47:36;96585.19;;;0.35;78.20
3960;BME280;1994;48.640;8.894;2023-03-01T06:50:05;96585.50;;;0.40;78.05
3960;BME280;1994;48.640;8.894;2023-03-01T06:52:31;96574.38;;;0.33;78.18
3960;BME280;1994;48.640;8.894;2023-03-01T06:54:57;96578.97;;;0.37;78.09
3960;BME280;1994;48.640;8.894;2023-03-01T06:57:23;96573.38;;;0.58;77.51
3960;BME280;1994;48.640;8.894;2023-03-01T06:59:49;96582.94;;;0.72;77.38
3960;BME280;1994;48.640;8.894;2023-03-01T07:02:15;96576.22;;;0.79;76.46
3960;BME280;1994;48.640;8.894;2023-03-01T07:04:42;96573.84;;;0.85;76.17
3960;BME280;1994;48.640;8.894;2023-03-01T07:07:08;96570.94;;;0.96;75.60
3960;BME280;1994;48.640;8.894;2023-03-01T07:09:34;96566.25;;;1.16;75.04
3960;BME280;1994;48.640;8.894;2023-03-01T07:12:00;96558.94;;;1.13;74.25
3960;BME280;1994;48.640;8.894;2023-03-01T07:14:29;96558.31;;;1.11;74.58
3960;BME280;1994;48.640;8.894;2023-03-01T07:16:55;96566.53;;;1.29;73.83
3960;BME280;1994;48.640;8.894;2023-03-01T07:19:22;96562.31;;;1.44;73.57
3960;BME280;1994;48.640;8.894;2023-03-01T07:21:48;96563.88;;;1.53;73.17
3960;BME280;1994;48.640;8.894;2023-03-01T07:24:17;96561.28;;;1.61;72.42
3960;BME280;1994;48.640;8.894;2023-03-01T07:26:43;96563.47;;;1.72;72.04
3960;BME280;1994;48.640;8.894;2023-03-01T07:29:10;96562.47;;;1.81;71.80
3960;BME280;1994;48.640;8.894;2023-03-01T07:31:36;96566.53;;;1.90;71.05
3960;BME280;1994;48.640;8.894;2023-03-01T07:34:03;96555.09;;;2.08;70.85
3960;BME280;1994;48.640;8.894;2023-03-01T07:36:28;96549.53;;;2.05;71.88
3960;BME280;1994;48.640;8.894;2023-03-01T07:38:57;96554.88;;;2.18;71.65
3960;BME280;1994;48.640;8.894;2023-03-01T07:41:23;96559.06;;;2.33;70.47
3960;BME280;1994;48.640;8.894;2023-03-01T07:43:49;96547.44;;;2.45;69.50
3960;BME280;1994;48.640;8.894;2023-03-01T07:46:15;96548.41;;;2.67;68.50
3960;BME280;1994;48.640;8.894;2023-03-01T07:48:40;96545.16;;;2.50;68.57
3960;BME280;1994;48.640;8.894;2023-03-01T07:51:10;96537.47;;;2.73;68.88
3960;BME280;1994;48.640;8.894;2023-03-01T07:53:36;96538.44;;;3.01;67.43
3960;BME280;1994;48.640;8.894;2023-03-01T07:56:11;96542.16;;;2.84;66.86
3960;BME280;1994;48.640;8.894;2023-03-01T07:58:42;96525.38;;;3.10;67.21
3960;BME280;1994;48.640;8.894;2023-03-01T08:01:11;96525.53;;;3.38;65.77
3960;BME280;1994;48.640;8.894;2023-03-01T08:03:38;96529.47;;;3.55;65.26
3960;BME280;1994;48.640;8.894;2023-03-01T08:06:07;96531.47;;;3.74;64.55
3960;BME280;1994;48.640;8.894;2023-03-01T08:08:39;96528.69;;;4.59;61.37
3960;BME280;1994;48.640;8.894;2023-03-01T08:11:07;96529.84;;;5.12;58.89
3960;BME280;1994;48.640;8.894;2023-03-01T08:13:33;96538.69;;;5.97;56.97
3960;BME280;1994;48.640;8.894;2023-03-01T08:16:08;96536.56;;;6.20;55.34
3960;BME280;1994;48.640;8.894;2023-03-01T08:18:35;96526.69;;;6.56;54.47
3960;BME280;1994;48.640;8.894;2023-03-01T08:21:06;96533.41;;;6.83;53.33
3960;BME280;1994;48.640;8.894;2023-03-01T08:23:33;96524.78;;;7.41;52.29
3960;BME280;1994;48.640;8.894;2023-03-01T08:26:16;96522.97;;;7.85;50.74
3960;BME280;1994;48.640;8.894;2023-03-01T08:28:44;96517.84;;;8.23;49.80
3960;BME280;1994;48.640;8.894;2023-03-01T08:31:26;96521.38;;;8.22;49.82
3960;BME280;1994;48.640;8.894;2023-03-01T08:33:56;96524.16;;;8.76;48.37
3960;BME280;1994;48.640;8.894;2023-03-01T08:36:36;96530.75;;;8.96;46.58
3960;BME280;1994;48.640;8.894;2023-03-01T08:39:03;96526.69;;;8.58;47.12
3960;BME280;1994;48.640;8.894;2023-03-01T08:41:30;96522.66;;;9.47;46.63
3960;BME280;1994;48.640;8.894;2023-03-01T08:43:56;96530.06;;;9.91;45.90
3960;BME280;1994;48.640;8.894;2023-03-01T08:46:39;96518.75;;;9.74;45.40
3960;BME280;1994;48.640;8.894;2023-03-01T08:49:17;96519.13;;;10.07;44.78
3960;BME280;1994;48.640;8.894;2023-03-01T08:51:47;96521.59;;;10.43;44.23
3960;BME280;1994;48.640;8.894;2023-03-01T08:54:16;96517.81;;;10.91;43.14
3960;BME280;1994;48.640;8.894;2023-03-01T08:56:46;96515.28;;;10.39;42.83
3960;BME280;1994;48.640;8.894;2023-03-01T08:59:14;96514.44;;;10.68;42.80
3960;BME280;1994;48.640;8.894;2023-03-01T09:01:41;96512.56;;;11.49;42.17
3960;BME280;1994;48.640;8.894;2023-03-01T09:04:17;96503.22;;;11.48;41.33
3960;BME280;1994;48.640;8.894;2023-03-01T09:06:43;96503.44;;;12.14;40.71
3960;BME280;1994;48.640;8.894;2023-03-01T09:09:15;96509.22;;;11.88;40.54
3960;BME280;1994;48.640;8.894;2023-03-01T09:11:43;96499.38;;;11.62;40.19
3960;BME280;1994;48.640;8.894;2023-03-01T09:14:09;96498.50;;;11.22;40.40
3960;BME280;1994;48.640;8.894;2023-03-01T09:16:44;96500.16;;;10.24;41.00
3960;BME280;1994;48.640;8.894;2023-03-01T09:19:19;96492.34;;;10.13;41.62
3960;BME280;1994;48.640;8.894;2023-03-01T09:21:44;96485.72;;;10.05;42.35
3960;BME280;1994;48.640;8.894;2023-03-01T09:24:20;96473.59;;;11.44;40.28
3960;BME280;1994;48.640;8.894;2023-03-01T09:26:47;96469.16;;;10.70;40.40
3960;BME280;1994;48.640;8.894;2023-03-01T09:29:14;96474.78;;;10.90;40.78
3960;BME280;1994;48.640;8.894;2023-03-01T09:31:40;96474.66;;;11.99;39.38
3960;BME280;1994;48.640;8.894;2023-03-01T09:34:06;96475.63;;;12.26;38.32
3960;BME280;1994;48.640;8.894;2023-03-01T09:36:38;96474.94;;;12.63;38.40
3960;BME280;1994;48.640;8.894;2023-03-01T09:39:07;96474.44;;;12.17;38.24
3960;BME280;1994;48.640;8.894;2023-03-01T09:47:00;96481.78;;;13.88;36.18
3960;BME280;1994;48.640;8.894;2023-03-01T09:49:35;96477.72;;;13.76;36.03
3960;BME280;1994;48.640;8.894;2023-03-01T09:52:42;96479.63;;;14.07;35.69
3960;BME280;1994;48.640;8.894;2023-03-01T09:55:52;96476.03;;;13.65;35.03
3960;BME280;1994;48.640;8.894;2023-03-01T10:09:38;96467.84;;;12.59;36.65
3960;BME280;1994;48.640;8.894;2023-03-01T10:12:16;96457.38;;;12.37;38.16
3960;BME280;1994;48.640;8.894;2023-03-01T10:15:14;96463.34;;;12.21;38.80
3960;BME280;1994;48.640;8.894;2023-03-01T10:18:00;96459.22;;;13.08;36.84
3960;BME280;1994;48.640;8.894;2023-03-01T10:20:58;96449.22;;;13.00;35.72
3960;BME280;1994;48.640;8.894;2023-03-01T10:23:26;96448.91;;;13.61;35.70
3960;BME280;1994;48.640;8.894;2023-03-01T10:28:58;96442.69;;;11.82;38.13
3960;BME280;1994;48.640;8.894;2023-03-01T10:31:52;96439.38;;;12.69;36.46
3960;BME280;1994;48.640;8.894;2023-03-01T10:34:31;96438.66;;;12.90;36.31
3960;BME280;1994;48.640;8.894;2023-03-01T10:37:19;96431.53;;;12.64;36.69
3960;BME280;1994;48.640;8.894;2023-03-01T10:40:11;96431.66;;;12.74;37.00
3960;BME280;1994;48.640;8.894;2023-03-01T10:42:49;96432.81;;;12.45;37.37
3960;BME280;1994;48.640;8.894;2023-03-01T10:45:35;96431.38;;;11.88;38.17
3960;BME280;1994;48.640;8.894;2023-03-01T10:48:18;96437.94;;;11.79;38.18
3960;BME280;1994;48.640;8.894;2023-03-01T10:51:06;96426.81;;;12.61;37.20
3960;BME280;1994;48.640;8.894;2023-03-01T10:53:42;96428.06;;;12.75;36.60
3960;BME280;1994;48.640;8.894;2023-03-01T10:58:55;96413.28;;;13.88;34.69
3960;BME280;1994;48.640;8.894;2023-03-01T11:06:40;96407.44;;;13.28;36.22
3960;BME280;1994;48.640;8.894;2023-03-01T11:09:22;96403.19;;;14.59;34.41
3960;BME280;1994;48.640;8.894;2023-03-01T11:11:56;96393.97;;;14.88;34.45
3960;BME280;1994;48.640;8.894;2023-03-01T11:14:48;96389.38;;;15.82;32.01
3960;BME280;1994;48.640;8.894;2023-03-01T11:17:31;96398.81;;;16.08;31.96
3960;BME280;1994;48.640;8.894;2023-03-01T11:22:52;96379.47;;;16.04;31.60
3960;BME280;1994;48.640;8.894;2023-03-01T11:25:27;96377.88;;;15.78;32.53
3960;BME280;1994;48.640;8.894;2023-03-01T11:27:56;96363.28;;;16.52;31.69
3960;BME280;1994;48.640;8.894;2023-03-01T11:30:37;96362.75;;;16.20;30.68
3960;BME280;1994;48.640;8.894;2023-03-01T11:41:40;96348.63;;;16.06;31.71
3960;BME280;1994;48.640;8.894;2023-03-01T11:44:18;96354.91;;;16.10;31.40
3960;BME280;1994;48.640;8.894;2023-03-01T11:55:53;96346.41;;;15.28;32.33
3960;BME280;1994;48.640;8.894;2023-03-01T12:01:28;96335.44;;;15.21;32.97
3960;BME280;1994;48.640;8.894;2023-03-01T12:04:17;96324.38;;;14.94;33.24
3960;BME280;1994;48.640;8.894;2023-03-01T12:10:35;96315.59;;;14.17;33.52
3960;BME280;1994;48.640;8.894;2023-03-01T12:22:26;96304.69;;;12.23;37.46
3960;BME280;1994;48.640;8.894;2023-03-01T12:25:19;96295.03;;;12.40;37.59
3960;BME280;1994;48.640;8.894;2023-03-01T12:37:21;96270.34;;;11.83;39.05
3960;BME280;1994;48.640;8.894;2023-03-01T12:40:01;96276.56;;;11.82;39.31
3960;BME280;1994;48.640;8.894;2023-03-01T12:42:41;96272.66;;;11.79;38.10
3960;BME280;1994;48.640;8.894;2023-03-01T12:45:57;96275.63;;;11.88;38.97
3960;BME280;1994;48.640;8.894;2023-03-01T12:48:49;96262.09;;;11.86;38.87
3960;BME280;1994;48.640;8.894;2023-03-01T12:51:24;96249.66;;;11.71;39.37
3960;BME280;1994;48.640;8.894;2023-03-01T12:53:54;96249.31;;;12.17;38.06
3960;BME280;1994;48.640;8.894;2023-03-01T12:56:25;96244.50;;;12.26;38.55
3960;BME280;1994;48.640;8.894;2023-03-01T13:05:33;96232.03;;;11.57;38.65
3960;BME280;1994;48.640;8.894;2023-03-01T13:11:06;96223.34;;;11.63;39.42
3960;BME280;1994;48.640;8.894;2023-03-01T13:13:37;96225.97;;;12.22;39.22
3960;BME280;1994;48.640;8.894;2023-03-01T13:16:41;96239.13;;;12.54;37.80
3960;BME280;1994;48.640;8.894;2023-03-01T13:19:13;96230.00;;;12.51;38.15
3960;BME280;1994;48.640;8.894;2023-03-01T13:21:41;96218.97;;;12.66;37.57
3960;BME280;1994;48.640;8.894;2023-03-01T13:24:40;96226.66;;;12.56;37.96
3960;BME280;1994;48.640;8.894;2023-03-01T13:27:18;96224.72;;;12.68;37.29
3960;BME280;1994;48.640;8.894;2023-03-01T13:29:59;96209.75;;;12.32;37.73
3960;BME280;1994;48.640;8.894;2023-03-01T13:32:35;96228.63;;;12.06;39.13
3960;BME280;1994;48.640;8.894;2023-03-01T13:37:52;96215.38;;;11.53;39.63
3960;BME280;1994;48.640;8.894;2023-03-01T13:42:54;96206.47;;;11.16;40.58
3960;BME280;1994;48.640;8.894;2023-03-01T13:47:53;96205.91;;;10.41;41.05
3960;BME280;1994;48.640;8.894;2023-03-01T13:50:27;96204.84;;;10.54;42.08
3960;BME280;1994;48.640;8.894;2023-03-01T13:52:57;96205.06;;;10.80;41.50
3960;BME280;1994;48.640;8.894;2023-03-01T13:56:07;96207.00;;;10.57;42.50
3960;BME280;1994;48.640;8.894;2023-03-01T13:59:05;96204.41;;;10.57;41.88
3960;BME280;1994;48.640;8.894;2023-03-01T14:01:37;96209.19;;;10.37;42.63
3960;BME280;1994;48.640;8.894;2023-03-01T14:04:27;96203.38;;;10.30;43.01
3960;BME280;1994;48.640;8.894;2023-03-01T14:07:22;96209.91;;;10.21;42.82
3960;BME280;1994;48.640;8.894;2023-03-01T14:09:59;96198.44;;;10.17;42.87
3960;BME280;1994;48.640;8.894;2023-03-01T14:12:39;96189.25;;;10.37;42.99
3960;BME280;1994;48.640;8.894;2023-03-01T14:15:28;96192.13;;;10.13;43.57
3960;BME280;1994;48.640;8.894;2023-03-01T14:20:41;96187.28;;;9.93;44.17
3960;BME280;1994;48.640;8.894;2023-03-01T14:23:18;96189.00;;;9.88;44.01
3960;BME280;1994;48.640;8.894;2023-03-01T14:25:56;96197.69;;;9.59;44.55
3960;BME280;1994;48.640;8.894;2023-03-01T14:28:31;96198.22;;;9.61;44.86
3960;BME280;1994;48.640;8.894;2023-03-01T14:31:00;96196.66;;;9.60;45.69
3960;BME280;1994;48.640;8.894;2023-03-01T14:33:29;96203.06;;;9.46;45.54
3960;BME280;1994;48.640;8.894;2023-03-01T14:36:08;96203.59;;;9.25;46.23
3960;BME280;1994;48.640;8.894;2023-03-01T14:38:47;96210.78;;;9.23;46.17
3960;BME280;1994;48.640;8.894;2023-03-01T14:41:21;96203.81;;;9.12;46.33
3960;BME280;1994;48.640;8.894;2023-03-01T14:43:51;96210.00;;;9.11;46.57
3960;BME280;1994;48.640;8.894;2023-03-01T14:46:26;96208.84;;;9.07;46.44
3960;BME280;1994;48.640;8.894;2023-03-01T14:49:01;96225.44;;;8.99;46.70
3960;BME280;1994;48.640;8.894;2023-03-01T14:51:28;96229.47;;;8.95;47.26
3960;BME280;1994;48.640;8.894;2023-03-01T14:53:55;96231.16;;;8.90;46.67
3960;BME280;1994;48.640;8.894;2023-03-01T14:56:21;96225.16;;;8.78;47.43
3960;BME280;1994;48.640;8.894;2023-03-01T14:58:52;96223.00;;;8.75;47.37
3960;BME280;1994;48.640;8.894;2023-03-01T15:01:19;96224.16;;;8.79;47.76
3960;BME280;1994;48.640;8.894;2023-03-01T15:03:49;96227.97;;;8.76;47.77
3960;BME280;1994;48.640;8.894;2023-03-01T15:06:20;96221.44;;;8.74;47.92
3960;BME280;1994;48.640;8.894;2023-03-01T15:08:53;96223.47;;;8.72;47.39
3960;BME280;1994;48.640;8.894;2023-03-01T15:11:29;96231.78;;;8.74;47.35
3960;BME280;1994;48.640;8.894;2023-03-01T15:13:56;96224.31;;;8.66;47.72
3960;BME280;1994;48.640;8.894;2023-03-01T15:16:29;96222.84;;;8.58;47.71
3960;BME280;1994;48.640;8.894;2023-03-01T15:19:05;96226.78;;;8.61;47.59
3960;BME280;1994;48.640;8.894;2023-03-01T15:21:35;96218.28;;;8.42;48.19
3960;BME280;1994;48.640;8.894;2023-03-01T15:26:51;96227.88;;;8.35;48.36
3960;BME280;1994;48.640;8.894;2023-03-01T15:29:26;96227.81;;;8.42;48.48
3960;BME280;1994;48.640;8.894;2023-03-01T15:37:01;96230.81;;;8.21;49.22
3960;BME280;1994;48.640;8.894;2023-03-01T15:39:43;96231.38;;;8.05;49.48
3960;BME280;1994;48.640;8.894;2023-03-01T15:42:38;96221.03;;;8.05;49.72
3960;BME280;1994;48.640;8.894;2023-03-01T15:48:17;96211.88;;;7.91;50.07